Time;durP1;ratioP1;P1;durP2;ratioP2;P2;SDS_P1;SDS_P2;PMS_P1;PMS_P2;Temp;Humidity;BMP_temperature;BMP_pressure;BME280_temperature;BME280_humidity;BME280_pressure;Samples;Min_cycle;Max_cycle;Signal;HPM_P1;HPM_P2
2023/11/04 00:02:04;;;;;;;8.98;4.30;;;6.30;99.90;;;;;;5033362;28;20041;-42
2023/11/04 00:04:32;;;;;;;7.68;3.10;;;6.30;99.90;;;;;;5034122;28;20049;-42
2023/11/04 00:07:00;;;;;;;6.85;3.25;;;6.40;99.90;;;;;;5037863;28;20076;-40
2023/11/04 00:09:27;;;;;;;7.55;2.97;;;6.30;99.90;;;;;;5039432;28;20088;-43
2023/11/04 00:12:11;;;;;;;8.60;2.75;;;6.30;99.90;;;;;;5036091;28;20557;-40
2023/11/04 00:14:39;;;;;;;7.53;3.20;;;6.30;99.90;;;;;;5041898;28;20047;-40
2023/11/04 00:17:06;;;;;;;6.25;2.88;;;6.30;99.90;;;;;;5046085;28;20141;-41
2023/11/04 00:19:33;;;;;;;8.05;3.10;;;6.30;99.90;;;;;;5045717;28;20080;-42
2023/11/04 00:22:00;;;;;;;7.63;2.85;;;6.30;99.90;;;;;;5043561;28;20097;-39
2023/11/04 00:24:27;;;;;;;6.35;3.22;;;6.20;99.90;;;;;;5035310;28;20053;-39
2023/11/04 00:26:55;;;;;;;7.50;3.08;;;6.20;99.90;;;;;;5032500;28;20053;-39
2023/11/04 00:29:22;;;;;;;8.77;3.10;;;6.20;99.90;;;;;;5032143;28;20124;-39
2023/11/04 00:31:49;;;;;;;7.55;3.10;;;6.20;99.90;;;;;;5032823;28;20053;-40
2023/11/04 00:34:36;;;;;;;8.85;3.53;;;6.20;99.90;;;;;;5039768;28;20128;-41
2023/11/04 00:37:23;;;;;;;7.45;3.03;;;6.20;99.90;;;;;;5031470;28;20049;-39
2023/11/04 00:40:10;;;;;;;8.10;2.97;;;6.10;99.90;;;;;;5031494;28;20053;-38
2023/11/04 00:42:57;;;;;;;5.32;2.88;;;6.10;99.90;;;;;;5029448;28;20459;-39
2023/11/04 00:45:45;;;;;;;7.25;3.65;;;6.00;99.90;;;;;;5030538;28;20050;-40
2023/11/04 00:48:32;;;;;;;13.13;3.67;;;6.00;99.90;;;;;;5030417;28;20088;-38
2023/11/04 00:51:21;;;;;;;6.90;3.20;;;6.00;99.90;;;;;;5031005;28;20083;-40
2023/11/04 00:54:08;;;;;;;7.03;3.13;;;5.90;99.90;;;;;;5012419;28;20396;-40
2023/11/04 00:56:55;;;;;;;7.18;3.20;;;5.90;99.90;;;;;;5028482;28;20061;-40
2023/11/04 00:59:42;;;;;;;6.13;3.65;;;5.90;99.90;;;;;;5031017;28;20053;-41
2023/11/04 01:02:29;;;;;;;6.03;3.17;;;5.80;99.90;;;;;;5041906;28;20542;-41
2023/11/04 01:05:17;;;;;;;8.60;3.25;;;5.80;99.90;;;;;;5036640;28;20096;-39
2023/11/04 01:08:05;;;;;;;6.78;3.20;;;5.80;99.90;;;;;;5018640;28;20064;-40
2023/11/04 01:10:52;;;;;;;6.25;3.13;;;5.80;99.90;;;;;;5029683;28;20085;-40
2023/11/04 01:13:39;;;;;;;5.60;3.50;;;5.80;99.90;;;;;;5017434;28;20148;-38
2023/11/04 01:16:26;;;;;;;6.95;3.25;;;5.80;99.90;;;;;;5013911;28;20045;-41
2023/11/04 01:19:13;;;;;;;6.28;3.28;;;5.70;99.90;;;;;;5029935;28;20132;-38
2023/11/04 01:22:00;;;;;;;8.18;3.22;;;5.70;99.90;;;;;;5021191;28;20045;-39
2023/11/04 01:24:47;;;;;;;5.55;3.35;;;5.60;99.90;;;;;;5038106;28;20041;-42
2023/11/04 01:27:34;;;;;;;6.40;3.38;;;5.70;99.90;;;;;;5037071;28;20056;-40
2023/11/04 01:30:21;;;;;;;8.75;3.55;;;5.70;99.90;;;;;;5016136;28;20049;-42
2023/11/04 01:33:09;;;;;;;7.45;3.20;;;5.70;99.90;;;;;;5030105;28;20058;-39
2023/11/04 01:35:57;;;;;;;5.60;3.45;;;5.70;99.90;;;;;;5029344;28;20102;-38
2023/11/04 01:38:44;;;;;;;7.22;3.35;;;5.60;99.90;;;;;;5028988;28;20065;-42
2023/11/04 01:41:31;;;;;;;6.35;3.45;;;5.60;99.90;;;;;;5027641;28;20255;-39
2023/11/04 01:44:18;;;;;;;6.68;3.35;;;5.70;99.90;;;;;;5029735;28;20057;-38
2023/11/04 01:47:05;;;;;;;8.25;3.47;;;5.70;99.90;;;;;;5029517;28;20057;-41
2023/11/04 01:49:52;;;;;;;8.02;3.00;;;5.60;99.90;;;;;;5027663;28;20057;-40
2023/11/04 01:52:42;;;;;;;9.63;3.45;;;5.70;99.90;;;;;;5028577;28;20064;-39
2023/11/04 01:55:30;;;;;;;7.70;3.88;;;5.70;99.90;;;;;;5026964;28;20140;-42
2023/11/04 01:58:17;;;;;;;6.95;4.07;;;5.70;99.90;;;;;;5030783;28;20045;-39
2023/11/04 02:01:04;;;;;;;5.95;3.42;;;5.60;99.90;;;;;;5032255;28;20049;-40
2023/11/04 02:03:53;;;;;;;7.30;4.13;;;5.60;99.90;;;;;;5017196;28;20111;-39
2023/11/04 02:06:42;;;;;;;8.05;4.32;;;5.50;99.90;;;;;;5029372;28;20065;-39
2023/11/04 02:09:30;;;;;;;6.18;3.78;;;5.50;99.90;;;;;;5027317;28;20056;-37
2023/11/04 02:12:17;;;;;;;12.30;4.63;;;5.50;99.90;;;;;;5028646;28;20175;-39
2023/11/04 02:15:04;;;;;;;8.55;4.50;;;5.40;99.90;;;;;;5029522;28;20053;-39
2023/11/04 02:17:51;;;;;;;7.35;4.47;;;5.40;99.90;;;;;;5028215;28;20148;-41
2023/11/04 02:20:41;;;;;;;11.80;5.10;;;5.40;99.90;;;;;;5015816;28;20499;-37
2023/11/04 02:23:28;;;;;;;11.85;4.90;;;5.40;99.90;;;;;;5027300;28;20057;-38
2023/11/04 02:26:15;;;;;;;9.45;4.78;;;5.30;99.90;;;;;;5036760;28;20187;-38
2023/11/04 02:29:02;;;;;;;11.15;5.05;;;5.30;99.90;;;;;;5039515;28;20050;-42
2023/11/04 02:31:49;;;;;;;9.70;4.80;;;5.20;99.90;;;;;;5035262;28;20262;-38
2023/11/04 02:34:36;;;;;;;12.48;5.43;;;5.20;99.90;;;;;;5027895;28;20045;-40
2023/11/04 02:37:24;;;;;;;11.23;5.18;;;5.30;99.90;;;;;;5026817;28;20053;-41
2023/11/04 02:40:11;;;;;;;12.15;6.30;;;5.30;99.90;;;;;;5019780;28;20049;-39
2023/11/04 02:42:58;;;;;;;10.82;5.63;;;5.30;99.90;;;;;;5024965;28;20233;-40
2023/11/04 02:45:45;;;;;;;10.63;6.13;;;5.30;99.90;;;;;;5013622;28;20060;-40
2023/11/04 02:48:32;;;;;;;10.40;5.45;;;5.20;99.90;;;;;;5027461;28;20064;-40
2023/11/04 02:51:20;;;;;;;12.50;7.18;;;5.20;99.90;;;;;;5032598;28;20053;-39
2023/11/04 02:54:07;;;;;;;12.65;5.95;;;5.10;99.90;;;;;;5027969;28;20359;-37
2023/11/04 02:56:54;;;;;;;11.15;6.00;;;5.20;99.90;;;;;;5029530;28;20518;-41
2023/11/04 02:59:41;;;;;;;11.10;6.03;;;5.10;99.90;;;;;;5027750;28;20183;-37
2023/11/04 03:02:28;;;;;;;8.48;5.57;;;5.10;99.90;;;;;;5029420;28;20053;-40
2023/11/04 03:05:15;;;;;;;9.85;6.25;;;5.10;99.90;;;;;;5027631;28;20057;-39
2023/11/04 03:08:18;;;;;;;14.13;6.15;;;5.10;99.90;;;;;;5031338;28;20399;-40
2023/11/04 03:11:05;;;;;;;15.02;7.22;;;5.10;99.90;;;;;;5028341;28;20144;-41
2023/11/04 03:13:52;;;;;;;11.30;6.38;;;5.00;99.90;;;;;;5028285;28;20060;-39
2023/11/04 03:16:39;;;;;;;15.45;8.75;;;5.00;99.90;;;;;;5027615;28;20580;-37
2023/11/04 03:19:26;;;;;;;12.50;7.75;;;4.90;99.90;;;;;;5028211;28;20046;-39
2023/11/04 03:22:13;;;;;;;13.60;7.20;;;4.90;99.90;;;;;;5029634;28;20056;-41
2023/11/04 03:25:01;;;;;;;12.15;8.02;;;4.90;99.90;;;;;;5030899;28;20046;-40
2023/11/04 03:27:48;;;;;;;13.45;6.85;;;4.80;99.90;;;;;;5017382;28;20059;-39
2023/11/04 03:30:35;;;;;;;16.30;7.47;;;4.80;99.90;;;;;;5032792;28;20057;-39
2023/11/04 03:33:22;;;;;;;14.40;7.25;;;4.80;99.90;;;;;;5032956;28;20045;-40
2023/11/04 03:36:09;;;;;;;15.40;6.93;;;4.80;99.90;;;;;;5030981;28;20103;-40
2023/11/04 03:38:56;;;;;;;12.93;6.93;;;4.70;99.90;;;;;;5039042;28;20045;-38
2023/11/04 03:41:44;;;;;;;11.77;6.57;;;4.70;99.90;;;;;;5040326;28;20072;-37
2023/11/04 03:44:31;;;;;;;13.32;7.13;;;4.70;99.90;;;;;;5044178;28;20480;-39
2023/11/04 03:47:18;;;;;;;12.27;7.35;;;4.70;99.90;;;;;;5028831;28;20046;-39
2023/11/04 03:50:06;;;;;;;12.43;7.55;;;4.70;99.90;;;;;;5032717;28;20076;-40
2023/11/04 03:52:53;;;;;;;15.65;7.55;;;4.70;99.90;;;;;;5029678;28;20469;-40
2023/11/04 03:55:40;;;;;;;10.75;7.30;;;4.70;99.90;;;;;;5030605;28;20049;-38
2023/11/04 03:58:27;;;;;;;12.38;8.00;;;4.60;99.90;;;;;;5029570;28;20037;-37
2023/11/04 04:01:14;;;;;;;12.60;7.88;;;4.60;99.90;;;;;;5031419;28;20128;-38
2023/11/04 04:04:01;;;;;;;11.95;7.85;;;4.50;99.90;;;;;;5030890;28;20049;-41
2023/11/04 04:06:50;;;;;;;19.55;10.48;;;4.50;99.90;;;;;;5027682;28;20060;-38
2023/11/04 04:09:37;;;;;;;21.73;13.77;;;4.60;99.90;;;;;;5031285;28;20053;-38
2023/11/04 04:12:24;;;;;;;17.70;11.60;;;4.60;99.90;;;;;;5028891;28;20099;-41
2023/11/04 04:15:11;;;;;;;18.98;12.40;;;4.50;99.90;;;;;;5029245;28;20103;-41
2023/11/04 04:17:58;;;;;;;15.30;9.80;;;4.60;99.90;;;;;;5031395;28;20076;-39
2023/11/04 04:20:45;;;;;;;21.45;11.10;;;4.60;99.90;;;;;;5031235;28;20170;-41
2023/11/04 04:23:32;;;;;;;17.20;11.27;;;4.50;99.90;;;;;;5030631;28;20125;-39
2023/11/04 04:26:20;;;;;;;14.35;8.95;;;4.50;99.90;;;;;;5029667;28;20506;-40
2023/11/04 04:29:07;;;;;;;14.32;9.05;;;4.60;99.90;;;;;;5039423;28;20076;-40
2023/11/04 04:31:54;;;;;;;22.52;9.18;;;4.60;99.90;;;;;;5038137;28;20061;-39
2023/11/04 04:34:42;;;;;;;13.88;8.63;;;4.60;99.90;;;;;;5029058;28;20061;-38
2023/11/04 04:37:28;;;;;;;16.80;9.23;;;4.60;99.90;;;;;;5029787;28;20140;-41
2023/11/04 04:40:15;;;;;;;16.50;9.10;;;4.60;99.90;;;;;;5031038;28;20052;-40
2023/11/04 04:43:02;;;;;;;15.10;9.55;;;4.50;99.90;;;;;;5027172;28;20162;-40
2023/11/04 04:45:49;;;;;;;19.58;9.95;;;4.60;99.90;;;;;;5029521;28;20053;-40
2023/11/04 04:48:37;;;;;;;15.10;9.13;;;4.50;99.90;;;;;;5032333;28;20119;-40
2023/11/04 04:51:24;;;;;;;15.90;9.35;;;4.50;99.90;;;;;;5033294;28;20080;-40
2023/11/04 04:54:11;;;;;;;15.75;9.32;;;4.70;99.90;;;;;;5030226;28;20104;-39
2023/11/04 04:56:58;;;;;;;15.73;9.40;;;4.70;99.90;;;;;;5032595;28;20049;-39
2023/11/04 04:59:45;;;;;;;15.70;9.40;;;4.80;99.90;;;;;;5043141;28;20441;-39
2023/11/04 05:02:33;;;;;;;15.80;9.43;;;4.90;99.90;;;;;;5044090;28;20081;-40
2023/11/04 05:05:20;;;;;;;17.27;9.30;;;5.00;99.90;;;;;;5043539;28;20069;-41
2023/11/04 05:08:08;;;;;;;15.52;9.45;;;5.00;99.90;;;;;;5044900;28;20064;-41
2023/11/04 05:10:55;;;;;;;15.10;9.38;;;5.10;99.90;;;;;;5042439;28;20092;-40
2023/11/04 05:13:42;;;;;;;16.13;9.48;;;5.20;99.90;;;;;;5029399;28;20152;-39
2023/11/04 05:16:29;;;;;;;14.27;8.77;;;5.20;99.90;;;;;;5041763;28;20298;-40
2023/11/04 05:19:17;;;;;;;13.38;8.77;;;5.30;99.90;;;;;;5045722;28;20045;-42
2023/11/04 05:22:04;;;;;;;13.77;8.48;;;5.30;99.90;;;;;;5044979;28;20049;-37
2023/11/04 05:24:51;;;;;;;12.57;8.35;;;5.40;99.90;;;;;;5038547;28;20130;-38
2023/11/04 05:27:38;;;;;;;14.27;8.70;;;5.50;99.90;;;;;;5033837;28;20223;-41
2023/11/04 05:30:25;;;;;;;15.57;8.98;;;5.50;99.90;;;;;;5029123;28;20053;-39
2023/11/04 05:33:12;;;;;;;14.95;9.48;;;5.60;99.90;;;;;;5031253;28;20069;-39
2023/11/04 05:35:59;;;;;;;14.25;8.50;;;5.60;99.90;;;;;;5024261;28;20045;-39
2023/11/04 05:38:46;;;;;;;13.98;8.18;;;5.60;99.90;;;;;;5026212;28;20594;-38
2023/11/04 05:41:33;;;;;;;18.42;8.82;;;5.60;99.90;;;;;;5025063;28;20118;-37
2023/11/04 05:44:20;;;;;;;14.27;8.50;;;5.60;99.90;;;;;;5031914;28;20048;-37
2023/11/04 05:47:07;;;;;;;12.75;8.40;;;5.60;99.90;;;;;;5033890;28;20065;-41
2023/11/04 05:49:54;;;;;;;14.43;8.45;;;5.70;99.90;;;;;;5040915;28;20057;-41
2023/11/04 05:52:43;;;;;;;14.68;8.32;;;5.80;99.90;;;;;;5027953;28;20224;-39
2023/11/04 05:55:30;;;;;;;12.75;7.70;;;5.80;99.90;;;;;;5040510;28;20042;-40
2023/11/04 05:58:17;;;;;;;12.35;6.95;;;5.80;99.90;;;;;;5031858;28;20049;-42
2023/11/04 06:01:04;;;;;;;12.02;7.90;;;5.80;99.90;;;;;;5029044;28;20113;-42
2023/11/04 06:03:51;;;;;;;11.52;7.57;;;5.80;99.90;;;;;;5024478;28;20060;-38
2023/11/04 06:06:38;;;;;;;11.35;7.57;;;5.80;99.90;;;;;;5028247;28;20079;-41
2023/11/04 06:09:25;;;;;;;11.15;7.35;;;5.70;99.90;;;;;;5029535;28;20049;-40
2023/11/04 06:12:14;;;;;;;12.13;7.07;;;5.80;99.90;;;;;;5021488;28;20056;-39
2023/11/04 06:15:01;;;;;;;12.45;7.95;;;5.70;99.90;;;;;;5032147;28;20087;-41
2023/11/04 06:17:49;;;;;;;9.88;6.90;;;5.70;99.90;;;;;;5037433;28;20538;-39
2023/11/04 06:20:36;;;;;;;11.18;6.85;;;5.60;99.90;;;;;;5036492;28;20076;-37
2023/11/04 06:23:23;;;;;;;10.48;6.75;;;5.60;99.90;;;;;;5039508;28;20060;-39
2023/11/04 06:26:09;;;;;;;9.00;6.70;;;5.70;99.90;;;;;;5038515;28;20056;-38
2023/11/04 06:28:56;;;;;;;9.90;6.60;;;5.80;99.90;;;;;;5038677;28;20088;-38
2023/11/04 06:31:43;;;;;;;8.60;6.05;;;5.90;99.90;;;;;;5040620;28;20469;-37
2023/11/04 06:34:31;;;;;;;11.10;7.13;;;5.90;99.90;;;;;;5030588;28;20056;-40
2023/11/04 06:37:18;;;;;;;9.95;6.32;;;5.90;99.90;;;;;;5023941;28;20566;-41
2023/11/04 06:40:09;;;;;;;11.27;6.72;;;5.90;99.90;;;;;;5028768;28;20041;-38
2023/11/04 06:42:56;;;;;;;9.83;6.37;;;6.00;99.90;;;;;;5019931;28;20379;-39
2023/11/04 06:45:43;;;;;;;9.35;6.50;;;6.00;99.90;;;;;;5023719;28;20057;-38
2023/11/04 06:48:30;;;;;;;10.57;6.47;;;6.10;99.90;;;;;;5024514;28;20133;-41
2023/11/04 06:51:18;;;;;;;11.00;6.35;;;6.30;99.90;;;;;;5030274;28;20101;-40
2023/11/04 06:53:45;;;;;;;11.27;6.88;;;6.30;99.90;;;;;;5028114;28;20060;-39
2023/11/04 06:56:13;;;;;;;10.80;7.65;;;6.40;99.90;;;;;;5034689;28;20045;-39
2023/11/04 06:58:40;;;;;;;8.27;5.97;;;6.40;99.90;;;;;;5034391;28;20065;-38
2023/11/04 07:01:15;;;;;;;10.77;7.22;;;6.40;99.90;;;;;;5032508;28;20124;-38
2023/11/04 07:03:42;;;;;;;9.32;6.13;;;6.50;99.90;;;;;;5034646;28;20053;-38
2023/11/04 07:06:13;;;;;;;8.95;6.22;;;6.50;99.90;;;;;;5032749;28;20092;-39
2023/11/04 07:08:42;;;;;;;9.70;6.20;;;6.60;99.90;;;;;;5041030;28;20053;-39
2023/11/04 07:11:13;;;;;;;10.38;6.13;;;6.80;99.90;;;;;;5036468;28;20168;-40
2023/11/04 07:13:40;;;;;;;9.85;6.57;;;6.80;99.90;;;;;;5040610;28;20042;-41
2023/11/04 07:16:12;;;;;;;8.35;5.88;;;6.80;99.90;;;;;;5035347;28;20041;-40
2023/11/04 07:18:40;;;;;;;11.95;6.40;;;6.90;99.90;;;;;;5033892;28;20048;-42
2023/11/04 07:21:08;;;;;;;9.32;6.18;;;6.90;99.90;;;;;;5033341;28;20080;-41
2023/11/04 07:23:35;;;;;;;9.95;6.07;;;6.90;99.90;;;;;;5035086;28;20095;-41
2023/11/04 07:26:03;;;;;;;8.43;5.88;;;7.10;99.90;;;;;;5033928;28;20061;-40
2023/11/04 07:28:36;;;;;;;11.00;5.90;;;7.20;99.90;;;;;;5033409;28;20049;-37
2023/11/04 07:31:05;;;;;;;9.07;6.10;;;7.20;99.90;;;;;;5035931;28;20052;-40
2023/11/04 07:33:33;;;;;;;8.55;5.65;;;7.20;99.90;;;;;;5032986;28;20049;-39
2023/11/04 07:36:00;;;;;;;6.85;4.82;;;7.30;99.90;;;;;;5031869;28;20598;-39
2023/11/04 07:38:27;;;;;;;8.85;5.43;;;7.30;99.90;;;;;;5032787;28;20056;-39
2023/11/04 07:40:55;;;;;;;6.70;4.95;;;7.20;99.90;;;;;;5034057;28;20045;-40
2023/11/04 07:43:22;;;;;;;7.57;4.97;;;7.40;99.90;;;;;;5034715;28;20045;-37
2023/11/04 07:45:49;;;;;;;7.50;5.28;;;7.40;99.90;;;;;;5033663;28;20118;-40
2023/11/04 07:48:16;;;;;;;8.60;5.60;;;7.50;99.90;;;;;;5030588;28;20044;-43
2023/11/04 07:50:43;;;;;;;8.93;4.82;;;7.60;99.90;;;;;;5032452;28;20045;-40
2023/11/04 07:53:10;;;;;;;8.60;5.00;;;7.70;99.90;;;;;;5033350;28;20507;-38
2023/11/04 07:55:37;;;;;;;7.43;4.72;;;7.80;99.90;;;;;;5029827;28;20046;-40
2023/11/04 07:58:04;;;;;;;6.28;4.47;;;7.80;99.90;;;;;;5032988;28;20201;-45
2023/11/04 08:00:32;;;;;;;8.13;4.88;;;7.80;99.90;;;;;;5030393;28;20114;-39
2023/11/04 08:02:59;;;;;;;7.78;4.78;;;7.60;99.90;;;;;;5036443;28;20418;-38
2023/11/04 08:05:29;;;;;;;7.90;5.03;;;7.50;99.90;;;;;;5036293;28;20495;-40
2023/11/04 08:07:56;;;;;;;9.32;5.18;;;7.50;99.90;;;;;;5034906;28;20100;-41
2023/11/04 08:10:24;;;;;;;8.32;5.05;;;7.50;99.90;;;;;;5033806;28;20038;-37
2023/11/04 08:12:51;;;;;;;7.40;4.95;;;7.50;99.90;;;;;;5032861;28;20042;-38
2023/11/04 08:15:19;;;;;;;6.18;4.50;;;7.50;99.90;;;;;;5034321;28;20147;-40
2023/11/04 08:17:46;;;;;;;7.20;4.95;;;7.50;99.90;;;;;;5032812;28;20049;-38
2023/11/04 08:20:13;;;;;;;7.45;5.15;;;7.70;99.90;;;;;;5029946;28;20052;-37
2023/11/04 08:22:40;;;;;;;6.75;4.68;;;7.70;99.90;;;;;;5035253;28;20109;-42
2023/11/04 08:25:08;;;;;;;7.75;5.00;;;7.70;99.90;;;;;;5034560;28;20044;-39
2023/11/04 08:27:35;;;;;;;7.13;4.45;;;7.90;99.90;;;;;;5036997;28;20113;-40
2023/11/04 08:30:04;;;;;;;5.80;4.03;;;8.00;99.90;;;;;;5036099;28;20168;-38
2023/11/04 08:32:32;;;;;;;6.65;3.90;;;8.10;99.90;;;;;;5038783;28;20132;-38
2023/11/04 08:35:00;;;;;;;7.55;4.00;;;8.00;99.90;;;;;;5039749;28;20136;-41
2023/11/04 08:37:27;;;;;;;7.20;4.35;;;8.10;99.90;;;;;;5033764;28;20095;-38
2023/11/04 08:39:55;;;;;;;6.10;3.53;;;8.10;99.90;;;;;;5033931;28;20124;-40
2023/11/04 08:42:23;;;;;;;6.20;3.72;;;8.20;99.90;;;;;;5028848;28;20061;-40
2023/11/04 08:44:50;;;;;;;10.10;4.47;;;8.00;99.90;;;;;;5031693;28;20048;-41
2023/11/04 08:47:17;;;;;;;8.95;4.00;;;8.20;99.90;;;;;;5035480;28;20077;-39
2023/11/04 08:49:44;;;;;;;7.53;3.85;;;8.30;99.90;;;;;;5031284;28;20042;-40
2023/11/04 08:52:12;;;;;;;5.50;3.92;;;8.20;99.90;;;;;;5033373;28;20509;-39
2023/11/04 08:54:42;;;;;;;9.90;3.67;;;8.20;99.90;;;;;;5032748;28;20067;-40
2023/11/04 08:57:09;;;;;;;5.63;3.63;;;8.20;99.90;;;;;;5032031;28;20045;-41
2023/11/04 08:59:36;;;;;;;6.13;3.63;;;8.30;99.90;;;;;;5034701;28;20041;-41
2023/11/04 09:02:03;;;;;;;6.13;3.30;;;8.50;99.90;;;;;;5038823;28;20113;-42
2023/11/04 09:04:30;;;;;;;5.07;3.47;;;8.30;99.90;;;;;;5044749;28;20128;-40
2023/11/04 09:06:58;;;;;;;4.60;3.20;;;8.40;99.90;;;;;;5045106;28;20425;-41
2023/11/04 09:09:25;;;;;;;5.03;3.20;;;8.40;99.90;;;;;;5044139;28;20045;-40
2023/11/04 09:11:55;;;;;;;6.18;3.40;;;8.60;99.90;;;;;;5032971;28;20166;-39
2023/11/04 09:14:23;;;;;;;5.45;3.70;;;8.60;99.90;;;;;;5031844;28;20087;-41
2023/11/04 09:16:51;;;;;;;5.85;3.47;;;8.70;99.90;;;;;;5031676;28;20103;-38
2023/11/04 09:19:18;;;;;;;5.03;2.90;;;8.90;99.90;;;;;;5031384;28;20046;-43
2023/11/04 09:21:46;;;;;;;5.28;3.13;;;9.00;99.90;;;;;;5029730;28;20041;-41
2023/11/04 09:24:13;;;;;;;7.72;3.38;;;9.20;99.90;;;;;;5031036;28;20056;-40
2023/11/04 09:26:40;;;;;;;4.50;2.90;;;9.30;99.90;;;;;;5031220;28;20128;-41
2023/11/04 09:29:07;;;;;;;4.60;3.00;;;9.40;99.90;;;;;;5033579;28;20050;-38
2023/11/04 09:31:36;;;;;;;4.43;2.92;;;9.30;99.90;;;;;;5035698;28;20128;-41
2023/11/04 09:34:04;;;;;;;4.93;3.10;;;9.40;99.90;;;;;;5030465;28;20103;-39
2023/11/04 09:36:31;;;;;;;4.40;2.95;;;9.40;99.90;;;;;;5029941;28;20465;-41
2023/11/04 09:38:58;;;;;;;3.92;2.80;;;9.50;99.90;;;;;;5030733;28;20049;-41
2023/11/04 09:41:25;;;;;;;5.50;3.00;;;9.50;99.90;;;;;;5026350;28;20049;-42
2023/11/04 09:43:53;;;;;;;4.32;2.90;;;9.60;99.90;;;;;;5031028;28;20128;-42
2023/11/04 09:46:20;;;;;;;3.80;3.03;;;9.80;99.90;;;;;;5029556;28;20051;-40
2023/11/04 09:48:47;;;;;;;4.03;2.85;;;9.90;99.90;;;;;;5027488;28;20051;-39
2023/11/04 09:51:17;;;;;;;6.22;3.30;;;10.10;99.90;;;;;;5027407;28;20045;-42
2023/11/04 09:53:53;;;;;;;4.80;3.50;;;10.20;99.90;;;;;;5027987;28;20051;-39
2023/11/04 09:56:22;;;;;;;5.15;3.03;;;10.40;99.90;;;;;;5024903;28;20049;-37
2023/11/04 09:58:50;;;;;;;5.65;2.88;;;10.40;99.90;;;;;;5028501;28;20049;-41
2023/11/04 10:01:20;;;;;;;7.35;2.90;;;10.50;99.90;;;;;;5030178;28;20041;-41
2023/11/04 10:03:48;;;;;;;4.50;2.42;;;10.70;99.90;;;;;;5028333;28;20045;-40
2023/11/04 10:06:16;;;;;;;4.15;2.60;;;10.70;99.90;;;;;;5031542;28;20121;-40
2023/11/04 10:08:44;;;;;;;3.30;2.47;;;10.90;99.90;;;;;;5029220;28;20049;-38
2023/11/04 10:11:11;;;;;;;3.45;2.50;;;10.90;99.90;;;;;;5035537;28;20084;-42
2023/11/04 10:13:39;;;;;;;3.72;2.72;;;10.90;99.90;;;;;;5038320;28;20080;-40
2023/11/04 10:16:07;;;;;;;4.47;2.80;;;11.10;99.90;;;;;;5032660;28;20125;-41
2023/11/04 10:18:37;;;;;;;3.78;2.83;;;11.30;99.90;;;;;;5025150;28;20048;-40
2023/11/04 10:21:06;;;;;;;3.63;2.70;;;11.30;99.90;;;;;;5029763;28;20049;-41
2023/11/04 10:23:34;;;;;;;3.65;2.60;;;11.20;99.90;;;;;;5029716;28;20112;-38
2023/11/04 10:26:03;;;;;;;3.03;2.40;;;10.90;99.90;;;;;;5029980;28;20053;-39
2023/11/04 10:28:33;;;;;;;4.22;2.58;;;11.00;99.90;;;;;;5029865;28;20399;-39
2023/11/04 10:31:05;;;;;;;4.97;2.50;;;11.10;99.90;;;;;;5033142;28;20049;-40
2023/11/04 10:33:34;;;;;;;;;;;11.30;99.90;;;;;;5034968;28;20053;-39
2023/11/04 10:36:06;;;;;;;3.35;2.38;;;11.40;99.90;;;;;;5032965;28;19921;-39
2023/11/04 10:38:35;;;;;;;4.25;2.50;;;11.80;99.90;;;;;;5035231;28;20045;-41
2023/11/04 10:41:05;;;;;;;6.60;3.00;;;12.30;99.90;;;;;;5041548;28;20061;-39
2023/11/04 10:44:00;;;;;;;3.67;2.63;;;12.90;99.90;;;;;;5042433;28;20046;-42
2023/11/04 10:46:43;;;;;;;4.22;2.50;;;13.10;99.90;;;;;;5036175;28;20536;-41
2023/11/04 10:49:19;;;;;;;3.55;2.35;;;13.10;99.90;;;;;;5034616;28;20049;-41
2023/11/04 10:51:56;;;;;;;5.32;2.90;;;13.10;99.90;;;;;;5035473;28;20053;-41
2023/11/04 10:54:35;;;;;;;4.38;2.88;;;13.70;99.90;;;;;;5039514;28;20041;-39
2023/11/04 10:57:20;;;;;;;4.13;2.70;;;13.90;99.90;;;;;;5046161;28;20065;-39
2023/11/04 11:00:07;;;;;;;3.10;2.55;;;13.80;99.90;;;;;;5047311;28;20057;-42
2023/11/04 11:02:36;;;;;;;3.75;2.88;;;14.10;99.90;;;;;;5043673;28;20073;-40
2023/11/04 11:05:05;;;;;;;5.07;3.17;;;14.30;99.90;;;;;;5044887;28;20075;-40
2023/11/04 11:07:35;;;;;;;4.63;3.00;;;14.60;99.90;;;;;;5043323;28;20113;-40
2023/11/04 11:10:03;;;;;;;5.68;3.20;;;15.00;99.90;;;;;;5042253;28;20050;-41
2023/11/04 11:12:33;;;;;;;3.70;3.13;;;15.50;99.90;;;;;;5040786;28;20053;-43
2023/11/04 11:15:00;;;;;;;5.30;3.40;;;15.90;99.90;;;;;;5037994;28;20068;-42
2023/11/04 11:17:31;;;;;;;5.00;3.38;;;16.30;99.90;;;;;;5044252;28;20047;-42
2023/11/04 11:20:00;;;;;;;4.80;2.95;;;16.50;99.90;;;;;;5044855;28;20041;-40
2023/11/04 11:22:27;;;;;;;3.50;3.17;;;16.50;99.90;;;;;;5037616;28;20045;-41
2023/11/04 11:24:57;;;;;;;3.75;3.10;;;16.40;99.90;;;;;;5034925;28;20042;-38
2023/11/04 11:27:25;;;;;;;3.35;3.05;;;16.30;99.90;;;;;;5033581;28;20069;-39
2023/11/04 11:29:56;;;;;;;5.55;3.33;;;16.40;99.90;;;;;;5030537;28;20189;-43
2023/11/04 11:32:34;;;;;;;4.32;3.70;;;16.30;99.90;;;;;;5034529;28;20458;-40
2023/11/04 11:35:01;;;;;;;4.10;3.60;;;16.30;99.90;;;;;;5031096;28;20123;-41
2023/11/04 11:37:29;;;;;;;4.40;3.78;;;16.60;99.90;;;;;;5032437;28;20046;-41
2023/11/04 11:39:56;;;;;;;4.43;3.72;;;16.80;99.90;;;;;;5030774;28;20048;-39
2023/11/04 11:42:27;;;;;;;4.40;3.53;;;17.20;99.90;;;;;;5026472;28;20045;-41
2023/11/04 11:44:57;;;;;;;4.07;3.60;;;17.10;99.90;;;;;;5030003;28;20773;-42
2023/11/04 11:47:24;;;;;;;3.80;3.47;;;17.30;99.90;;;;;;5030169;28;20041;-39
2023/11/04 11:49:51;;;;;;;4.90;3.90;;;17.30;99.90;;;;;;5032351;28;20124;-41
2023/11/04 11:52:18;;;;;;;4.63;3.97;;;16.90;99.90;;;;;;5026213;28;20391;-41
2023/11/04 11:54:45;;;;;;;4.63;4.13;;;16.70;99.90;;;;;;5030330;28;20075;-38
2023/11/04 11:57:12;;;;;;;4.60;3.92;;;16.70;99.90;;;;;;5031162;28;20050;-42
2023/11/04 11:59:40;;;;;;;4.20;3.80;;;16.70;99.90;;;;;;5022972;28;20398;-40
2023/11/04 12:02:07;;;;;;;4.28;3.80;;;17.20;99.90;;;;;;5030150;28;20057;-39
2023/11/04 12:04:35;;;;;;;5.15;4.07;;;17.60;99.90;;;;;;5029078;28;20489;-42
2023/11/04 12:07:03;;;;;;;6.05;4.20;;;17.70;99.90;;;;;;5025334;28;20056;-41
2023/11/04 12:09:30;;;;;;;5.22;3.80;;;17.80;99.90;;;;;;5033086;28;20077;-40
2023/11/04 12:11:58;;;;;;;4.53;3.72;;;17.80;99.90;;;;;;5030391;28;20045;-41
2023/11/04 12:14:25;;;;;;;4.63;3.80;;;17.50;99.90;;;;;;5031317;28;20499;-41
2023/11/04 12:16:53;;;;;;;5.32;3.97;;;17.20;99.90;;;;;;5032595;28;20056;-39
2023/11/04 12:19:21;;;;;;;4.57;4.18;;;16.30;99.90;;;;;;5032951;28;20064;-39
2023/11/04 12:21:49;;;;;;;4.70;4.05;;;15.60;99.90;;;;;;5033646;28;20041;-42
2023/11/04 12:24:18;;;;;;;4.72;4.30;;;15.20;99.90;;;;;;5034017;28;20125;-39
2023/11/04 12:26:45;;;;;;;5.18;4.10;;;15.20;99.90;;;;;;5024193;28;20491;-39
2023/11/04 12:29:12;;;;;;;4.32;3.72;;;14.90;99.90;;;;;;5031129;28;20097;-40
2023/11/04 12:31:40;;;;;;;3.92;3.42;;;14.50;99.90;;;;;;5030597;28;20052;-43
2023/11/04 12:34:09;;;;;;;4.60;3.85;;;14.20;99.90;;;;;;5029765;28;20045;-40
2023/11/04 12:36:37;;;;;;;5.32;4.20;;;14.00;99.90;;;;;;5032404;28;20100;-40
2023/11/04 12:39:05;;;;;;;6.40;3.80;;;13.40;99.90;;;;;;5029844;28;20033;-39
2023/11/04 12:41:34;;;;;;;4.65;4.22;;;13.30;99.90;;;;;;5034522;28;20042;-40
2023/11/04 12:44:02;;;;;;;4.45;3.80;;;13.40;99.90;;;;;;5031143;28;20053;-41
2023/11/04 12:46:30;;;;;;;6.28;4.10;;;13.30;99.90;;;;;;5038652;28;20644;-42
2023/11/04 12:48:57;;;;;;;5.47;4.20;;;13.30;99.90;;;;;;5035069;28;20041;-40
2023/11/04 12:51:25;;;;;;;5.15;3.60;;;13.30;99.90;;;;;;5033259;28;20545;-43
2023/11/04 12:53:52;;;;;;;4.80;3.65;;;13.40;99.90;;;;;;5031388;28;20056;-40
2023/11/04 12:56:20;;;;;;;3.95;3.40;;;13.30;99.90;;;;;;5035522;28;20454;-40
2023/11/04 12:58:47;;;;;;;5.13;3.70;;;13.10;99.90;;;;;;5034205;28;20072;-43
2023/11/04 13:01:15;;;;;;;4.05;3.65;;;12.80;99.90;;;;;;5038797;28;20071;-41
2023/11/04 13:03:42;;;;;;;4.85;3.55;;;12.70;99.90;;;;;;5024120;28;20140;-41
2023/11/04 13:06:10;;;;;;;4.20;3.10;;;12.50;99.90;;;;;;5032472;28;20100;-44
2023/11/04 13:08:37;;;;;;;4.57;3.63;;;12.30;99.90;;;;;;5029852;28;20521;-41
2023/11/04 13:11:05;;;;;;;5.18;3.45;;;12.20;99.90;;;;;;5028265;28;20155;-40
2023/11/04 13:13:32;;;;;;;3.92;3.28;;;12.20;99.90;;;;;;5030785;28;20045;-39
2023/11/04 13:15:59;;;;;;;4.93;4.03;;;12.10;99.90;;;;;;5025248;28;20410;-43
2023/11/04 13:18:27;;;;;;;4.35;3.70;;;12.20;99.90;;;;;;5030877;28;20441;-42
2023/11/04 13:20:55;;;;;;;4.13;3.55;;;12.10;99.90;;;;;;5028371;28;20124;-41
2023/11/04 13:23:22;;;;;;;4.85;3.67;;;12.00;99.90;;;;;;5027445;28;20116;-38
2023/11/04 13:25:49;;;;;;;4.72;3.47;;;12.20;99.90;;;;;;5031276;28;20054;-39
2023/11/04 13:28:16;;;;;;;5.80;3.95;;;12.10;99.90;;;;;;5036844;28;20071;-41
2023/11/04 13:30:43;;;;;;;6.65;4.32;;;12.10;99.90;;;;;;5030699;28;20081;-40
2023/11/04 13:33:10;;;;;;;5.55;4.10;;;12.10;99.90;;;;;;5029327;28;20055;-40
2023/11/04 13:35:38;;;;;;;7.07;3.95;;;12.40;99.90;;;;;;5029318;28;20068;-40
2023/11/04 13:38:05;;;;;;;6.13;3.95;;;12.60;99.90;;;;;;5030575;28;20088;-39
2023/11/04 13:40:32;;;;;;;4.78;3.40;;;12.70;99.90;;;;;;5029116;28;20052;-41